createdAt,value
2023-04-11T05:03:21.466Z,500.00
2023-04-11T05:04:21.393Z,500.00
2023-04-11T05:05:22.316Z,500.00
2023-04-11T05:06:22.350Z,500.00
2023-04-11T05:07:22.377Z,500.00
2023-04-11T05:08:22.418Z,500.00
2023-04-11T05:09:22.424Z,400.00
2023-04-11T05:10:22.427Z,400.00
2023-04-11T05:11:22.488Z,400.00
2023-04-11T05:12:22.527Z,400.00
2023-04-11T05:13:21.599Z,400.00
2023-04-11T05:14:22.653Z,400.00
2023-04-11T05:15:22.733Z,400.00
2023-04-11T05:16:22.810Z,400.00
2023-04-11T05:17:24.597Z,400.00
2023-04-11T05:18:22.886Z,400.00
2023-04-11T05:19:22.854Z,400.00
2023-04-11T05:20:22.833Z,400.00
2023-04-11T05:21:22.808Z,400.00
2023-04-11T05:22:22.812Z,400.00
2023-04-11T05:23:22.812Z,400.00
2023-04-11T05:24:21.796Z,400.00
2023-04-11T05:25:22.793Z,400.00
2023-04-11T05:26:22.788Z,400.00
2023-04-11T05:27:22.771Z,400.00
2023-04-11T05:28:22.767Z,400.00
2023-04-11T05:29:22.755Z,428.00
2023-04-11T05:30:21.742Z,479.00
2023-04-11T05:31:22.927Z,502.00
2023-04-11T05:32:21.761Z,500.00
2023-04-11T05:33:21.750Z,497.00
2023-04-11T05:34:22.827Z,500.00
2023-04-11T05:35:22.719Z,499.00
2023-04-11T05:36:22.719Z,509.00
2023-04-11T05:37:22.709Z,540.00
2023-04-11T05:38:22.698Z,505.00
2023-04-11T05:39:22.689Z,503.00
2023-04-11T05:40:22.684Z,505.00
2023-04-11T05:41:22.673Z,531.00
2023-04-11T05:42:22.665Z,526.00
2023-04-11T05:43:22.672Z,520.00
2023-04-11T05:44:22.668Z,508.00
2023-04-11T05:45:22.667Z,507.00
2023-04-11T05:46:22.705Z,507.00
2023-04-11T05:47:22.642Z,512.00
2023-04-11T05:48:22.625Z,517.00
2023-04-11T05:49:22.610Z,508.00
2023-04-11T05:50:22.627Z,504.00
2023-04-11T05:51:22.608Z,513.00
2023-04-11T05:52:22.618Z,517.00
2023-04-11T05:53:22.578Z,515.00
2023-04-11T05:54:22.585Z,510.00
2023-04-11T05:55:22.576Z,514.00
2023-04-11T05:56:22.585Z,509.00
2023-04-11T05:57:21.568Z,507.00
2023-04-11T05:58:22.552Z,511.00
2023-04-11T05:59:26.400Z,511.00
2023-04-11T06:00:22.559Z,511.00
2023-04-11T06:01:21.521Z,482.00
2023-04-11T06:02:22.584Z,479.00
2023-04-11T06:03:21.667Z,498.00
2023-04-11T06:04:22.740Z,509.00
2023-04-11T06:05:21.492Z,513.00
2023-04-11T06:06:22.507Z,510.00
2023-04-11T06:07:22.500Z,512.00
2023-04-11T06:08:21.548Z,509.00
2023-04-11T06:09:22.476Z,514.00
2023-04-11T06:10:22.459Z,523.00
2023-04-11T06:11:21.450Z,528.00
2023-04-11T06:12:22.459Z,525.00
2023-04-11T06:13:21.442Z,520.00
2023-04-11T06:14:21.425Z,507.00
2023-04-11T06:15:22.430Z,497.00
2023-04-11T06:16:22.450Z,511.00
2023-04-11T06:17:22.457Z,516.00
2023-04-11T06:18:22.417Z,488.00
2023-04-11T06:19:22.407Z,503.00
2023-04-11T06:20:22.480Z,506.00
2023-04-11T06:21:21.382Z,517.00
2023-04-11T06:22:21.446Z,565.00
2023-04-11T06:23:22.375Z,548.00
2023-04-11T06:24:22.380Z,542.00
2023-04-11T06:25:22.354Z,551.00
2023-04-11T06:26:22.348Z,551.00
2023-04-11T06:27:22.342Z,552.00
2023-04-11T06:28:22.373Z,561.00
2023-04-11T06:29:22.329Z,560.00
2023-04-11T06:30:21.315Z,563.00
2023-04-11T06:31:22.315Z,576.00
2023-04-11T06:32:21.316Z,569.00
2023-04-11T06:33:22.319Z,567.00
2023-04-11T06:34:22.277Z,577.00
2023-04-11T06:35:22.290Z,573.00
2023-04-11T06:36:21.309Z,570.00
2023-04-11T06:37:22.263Z,569.00
2023-04-11T06:38:21.290Z,570.00
2023-04-11T06:39:22.238Z,573.00
2023-04-11T06:40:22.256Z,575.00
2023-04-11T06:41:22.253Z,579.00
2023-04-11T06:42:22.242Z,581.00
2023-04-11T06:43:22.248Z,583.00
2023-04-11T06:44:22.287Z,585.00
2023-04-11T06:45:22.282Z,585.00
2023-04-11T06:46:22.371Z,587.00
2023-04-11T06:47:22.432Z,588.00
2023-04-11T06:48:22.454Z,587.00
2023-04-11T06:49:22.506Z,589.00
2023-04-11T06:50:22.548Z,591.00
2023-04-11T06:51:22.620Z,594.00
2023-04-11T06:52:21.666Z,592.00
2023-04-11T06:53:23.012Z,614.00
2023-04-11T06:54:22.803Z,612.00
2023-04-11T06:55:22.846Z,612.00
2023-04-11T06:56:22.891Z,612.00
2023-04-11T06:57:22.945Z,609.00
2023-04-11T06:58:22.496Z,611.00
2023-04-11T06:59:24.659Z,619.00
2023-04-11T07:00:22.076Z,616.00
2023-04-11T07:01:23.088Z,599.00
2023-04-11T07:02:23.224Z,597.00
2023-04-11T07:03:23.184Z,586.00
2023-04-11T07:04:23.199Z,583.00
2023-04-11T07:05:23.034Z,578.00
2023-04-11T07:06:23.009Z,589.00
2023-04-11T07:07:22.012Z,572.00
2023-04-11T07:08:23.006Z,583.00
2023-04-11T07:09:22.987Z,585.00
2023-04-11T07:10:23.006Z,577.00
2023-04-11T07:11:22.962Z,563.00
2023-04-11T07:12:22.974Z,586.00
2023-04-11T07:13:22.977Z,581.00
2023-04-11T07:14:22.950Z,558.00
2023-04-11T07:15:22.931Z,562.00
2023-04-11T07:16:21.947Z,541.00
2023-04-11T07:17:22.000Z,552.00
2023-04-11T07:18:21.935Z,551.00
2023-04-11T07:19:21.901Z,552.00
2023-04-11T07:20:22.900Z,549.00
2023-04-11T07:21:22.893Z,552.00
2023-04-11T07:22:22.882Z,543.00
2023-04-11T07:23:23.842Z,558.00
2023-04-11T07:24:22.864Z,556.00
2023-04-11T07:25:21.882Z,550.00
2023-04-11T07:26:21.898Z,554.00
2023-04-11T07:27:22.835Z,547.00
2023-04-11T07:28:22.843Z,559.00
2023-04-11T07:29:22.828Z,563.00
2023-04-11T07:30:21.810Z,531.00
2023-04-11T07:31:22.964Z,568.00
2023-04-11T07:32:22.931Z,554.00
2023-04-11T07:33:22.818Z,563.00
2023-04-11T07:34:22.805Z,574.00
2023-04-11T07:35:22.785Z,550.00
2023-04-11T07:36:22.798Z,573.00
2023-04-11T07:37:22.771Z,569.00
2023-04-11T07:38:21.770Z,558.00
2023-04-11T07:39:22.755Z,578.00
2023-04-11T07:40:22.758Z,567.00
2023-04-11T07:41:21.749Z,569.00
2023-04-11T07:42:22.860Z,573.00
2023-04-11T07:43:22.732Z,573.00
2023-04-11T07:44:24.111Z,565.00
2023-04-11T07:45:22.727Z,568.00
2023-04-11T07:46:21.711Z,560.00
2023-04-11T07:47:22.767Z,579.00
2023-04-11T07:48:23.036Z,599.00
2023-04-11T07:49:22.726Z,573.00
2023-04-11T07:50:22.797Z,576.00
2023-04-11T07:51:22.824Z,597.00
2023-04-11T07:52:22.881Z,594.00
2023-04-11T07:53:23.027Z,599.00
2023-04-11T07:54:22.005Z,579.00
2023-04-11T07:55:23.061Z,592.00
2023-04-11T07:56:23.109Z,607.00
2023-04-11T07:57:23.110Z,596.00
2023-04-11T07:58:23.150Z,604.00
2023-04-11T07:59:22.119Z,605.00
2023-04-11T08:00:23.156Z,602.00
2023-04-11T08:01:23.115Z,609.00
2023-04-11T08:02:23.287Z,599.00
2023-04-11T08:03:23.555Z,619.00
2023-04-11T08:04:23.240Z,604.00
2023-04-11T08:05:23.294Z,613.00
2023-04-11T08:06:22.167Z,604.00
2023-04-11T08:07:23.183Z,611.00
2023-04-11T08:08:23.509Z,607.00
2023-04-11T08:09:23.177Z,604.00
2023-04-11T08:10:22.174Z,609.00
2023-04-11T08:11:22.167Z,602.00
2023-04-11T08:12:22.190Z,607.00
2023-04-11T08:13:22.199Z,625.00
2023-04-11T08:14:22.299Z,626.00
2023-04-11T08:15:22.189Z,614.00
2023-04-11T08:16:22.308Z,621.00
2023-04-11T08:17:28.336Z,625.00
2023-04-11T08:18:23.259Z,625.00
2023-04-11T08:19:22.184Z,622.00
2023-04-11T08:20:23.156Z,604.00
2023-04-11T08:21:23.168Z,628.00
2023-04-11T08:22:22.147Z,625.00
2023-04-11T08:23:22.145Z,625.00
2023-04-11T08:24:23.138Z,619.00
2023-04-11T08:25:23.136Z,642.00
2023-04-11T08:26:23.117Z,629.00
2023-04-11T08:27:23.117Z,629.00
2023-04-11T08:28:22.111Z,635.00
2023-04-11T08:29:23.114Z,629.00
2023-04-11T08:30:22.221Z,648.00
2023-04-11T08:31:23.241Z,637.00
2023-04-11T08:32:23.090Z,633.00
2023-04-11T08:33:23.062Z,647.00
2023-04-11T08:34:22.077Z,637.00
2023-04-11T08:35:23.057Z,642.00
2023-04-11T08:36:22.040Z,641.00
2023-04-11T08:37:23.047Z,646.00
2023-04-11T08:38:23.038Z,639.00
2023-04-11T08:39:22.040Z,650.00
2023-04-11T08:40:22.027Z,647.00
2023-04-11T08:41:23.017Z,653.00
2023-04-11T08:42:23.001Z,637.00
2023-04-11T08:43:23.010Z,648.00
2023-04-11T08:44:23.017Z,695.00
2023-04-11T08:45:23.010Z,729.00
2023-04-11T08:46:22.027Z,700.00
2023-04-11T08:47:23.072Z,739.00
2023-04-11T08:48:22.970Z,754.00
2023-04-11T08:49:22.958Z,765.00
2023-04-11T08:50:22.951Z,771.00
2023-04-11T08:51:22.932Z,787.00
2023-04-11T08:52:22.941Z,798.00
2023-04-11T08:53:22.913Z,779.00
2023-04-11T08:54:22.903Z,781.00
2023-04-11T08:55:22.907Z,815.00
2023-04-11T08:56:22.912Z,800.00
2023-04-11T08:57:22.878Z,788.00
2023-04-11T08:58:22.986Z,795.00
2023-04-11T08:59:22.890Z,810.00
2023-04-11T09:00:21.878Z,801.00
2023-04-11T09:01:21.923Z,824.00
2023-04-11T09:02:23.049Z,829.00
2023-04-11T09:03:22.030Z,819.00
2023-04-11T09:04:21.875Z,788.00
2023-04-11T09:05:21.844Z,779.00
2023-04-11T09:06:21.829Z,780.00
2023-04-11T09:07:21.821Z,769.00
2023-04-11T09:08:22.822Z,759.00
2023-04-11T09:09:22.816Z,793.00
2023-04-11T09:10:22.805Z,800.00
2023-04-11T09:11:22.828Z,787.00
2023-04-11T09:12:21.877Z,793.00
2023-04-11T09:13:23.004Z,804.00
2023-04-11T09:14:22.987Z,793.00
2023-04-11T09:15:22.016Z,790.00
2023-04-11T09:16:22.224Z,766.00
2023-04-11T09:17:23.155Z,752.00
2023-04-11T09:18:23.145Z,765.00
2023-04-11T09:19:22.197Z,778.00
2023-04-11T09:20:23.211Z,788.00
2023-04-11T09:21:22.200Z,780.00
2023-04-11T09:22:22.220Z,780.00
2023-04-11T09:23:22.250Z,766.00
2023-04-11T09:24:23.298Z,780.00
2023-04-11T09:25:23.334Z,804.00
2023-04-11T09:26:24.221Z,815.00
2023-04-11T09:27:22.254Z,805.00
2023-04-11T09:28:23.263Z,830.00
2023-04-11T09:29:22.272Z,834.00
2023-04-11T09:30:23.293Z,822.00
2023-04-11T09:31:23.304Z,841.00
2023-04-11T09:32:22.311Z,829.00
2023-04-11T09:33:23.292Z,850.00
2023-04-11T09:34:23.300Z,834.00
2023-04-11T09:35:23.255Z,839.00
2023-04-11T09:36:23.262Z,844.00
2023-04-11T09:37:23.270Z,867.00
2023-04-11T09:38:23.254Z,878.00
2023-04-11T09:39:23.280Z,858.00
2023-04-11T09:40:23.263Z,877.00
2023-04-11T09:41:23.245Z,884.00
2023-04-11T09:42:22.270Z,890.00
2023-04-11T09:43:23.249Z,970.00
2023-04-11T09:44:23.257Z,978.00
2023-04-11T09:45:22.299Z,982.00
2023-04-11T09:46:23.355Z,988.00
2023-04-11T09:47:23.375Z,983.00
2023-04-11T09:48:29.350Z,995.00
2023-04-11T09:49:23.546Z,951.00
2023-04-11T09:50:23.457Z,970.00
2023-04-11T09:51:32.299Z,954.00
2023-04-11T09:52:23.370Z,986.00
2023-04-11T09:53:23.320Z,950.00
2023-04-11T09:54:24.085Z,945.00
2023-04-11T09:55:23.312Z,952.00
2023-04-11T09:56:22.320Z,996.00
2023-04-11T09:57:22.301Z,928.00
2023-04-11T09:58:23.281Z,926.00
2023-04-11T09:59:23.292Z,947.00
2023-04-11T10:00:23.295Z,947.00
2023-04-11T10:01:23.312Z,925.00
2023-04-11T10:02:22.335Z,916.00
2023-04-11T10:03:22.393Z,962.00
2023-04-11T10:04:22.325Z,955.00
2023-04-11T10:05:23.375Z,943.00
2023-04-11T10:06:23.486Z,946.00
2023-04-11T10:07:23.480Z,912.00
2023-04-11T10:08:23.515Z,938.00
2023-04-11T10:09:23.546Z,928.00
2023-04-11T10:10:23.594Z,955.00
2023-04-11T10:11:24.147Z,924.00
2023-04-11T10:12:22.585Z,927.00
2023-04-11T10:13:23.606Z,903.00
2023-04-11T10:14:22.592Z,920.00
2023-04-11T10:15:22.590Z,890.00
2023-04-11T10:16:23.771Z,893.00
2023-04-11T10:17:24.610Z,903.00
2023-04-11T10:18:22.675Z,893.00
2023-04-11T10:19:23.584Z,896.00
2023-04-11T10:20:23.581Z,887.00
2023-04-11T10:21:23.566Z,886.00
2023-04-11T10:22:23.596Z,878.00
2023-04-11T10:23:23.596Z,877.00
2023-04-11T10:24:23.575Z,880.00
2023-04-11T10:25:22.600Z,887.00
2023-04-11T10:26:23.585Z,892.00
2023-04-11T10:27:23.595Z,882.00
2023-04-11T10:28:23.611Z,878.00
2023-04-11T10:29:23.596Z,886.00
2023-04-11T10:30:23.602Z,881.00
2023-04-11T10:31:23.643Z,871.00
2023-04-11T10:32:23.672Z,877.00
2023-04-11T10:33:23.598Z,879.00
2023-04-11T10:34:23.610Z,881.00
2023-04-11T10:35:23.604Z,868.00
2023-04-11T10:36:23.637Z,869.00
2023-04-11T10:37:22.619Z,871.00
2023-04-11T10:38:23.658Z,876.00
2023-04-11T10:39:22.627Z,876.00
2023-04-11T10:40:23.620Z,877.00
2023-04-11T10:41:22.657Z,885.00
2023-04-11T10:42:23.621Z,871.00
2023-04-11T10:43:22.631Z,882.00
2023-04-11T10:44:24.089Z,879.00
2023-04-11T10:45:23.640Z,889.00
2023-04-11T10:46:23.711Z,888.00
2023-04-11T10:47:23.646Z,899.00
2023-04-11T10:48:23.676Z,898.00
2023-04-11T10:49:23.088Z,895.00
2023-04-11T10:50:23.644Z,893.00
2023-04-11T10:51:22.635Z,887.00
2023-04-11T10:52:23.681Z,895.00
2023-04-11T10:53:23.638Z,887.00
2023-04-11T10:54:23.682Z,889.00
2023-04-11T10:55:23.634Z,892.00
2023-04-11T10:56:22.650Z,885.00
2023-04-11T10:57:22.728Z,900.00
2023-04-11T10:58:22.632Z,906.00
2023-04-11T10:59:23.638Z,892.00
2023-04-11T11:00:23.655Z,901.00
2023-04-11T11:01:32.100Z,898.00
2023-04-11T11:02:23.737Z,899.00
2023-04-11T11:03:23.747Z,899.00
2023-04-11T11:04:23.727Z,902.00
2023-04-11T11:05:22.621Z,905.00
2023-04-11T11:06:22.613Z,913.00
2023-04-11T11:07:23.591Z,912.00
2023-04-11T11:08:22.633Z,914.00
2023-04-11T11:09:23.673Z,919.00
2023-04-11T11:10:23.597Z,914.00
2023-04-11T11:11:22.569Z,910.00
2023-04-11T11:12:22.568Z,906.00
2023-04-11T11:13:22.580Z,922.00
2023-04-11T11:14:23.546Z,911.00
2023-04-11T11:15:23.530Z,917.00
2023-04-11T11:16:22.564Z,919.00
2023-04-11T11:17:23.586Z,907.00
2023-04-11T11:18:22.508Z,915.00
2023-04-11T11:19:23.498Z,919.00
2023-04-11T11:20:23.498Z,909.00
2023-04-11T11:21:27.362Z,919.00
2023-04-11T11:22:23.505Z,920.00
2023-04-11T11:23:23.528Z,922.00
2023-04-11T11:24:22.554Z,923.00
2023-04-11T11:25:23.528Z,928.00
2023-04-11T11:26:23.570Z,930.00
2023-04-11T11:27:23.697Z,931.00
2023-04-11T11:28:23.557Z,939.00
2023-04-11T11:29:23.557Z,923.00
2023-04-11T11:30:23.587Z,934.00
2023-04-11T11:31:23.605Z,941.00
2023-04-11T11:32:23.631Z,934.00
2023-04-11T11:33:23.601Z,937.00
2023-04-11T11:34:24.353Z,944.00
2023-04-11T11:35:22.616Z,956.00
2023-04-11T11:36:23.637Z,947.00
2023-04-11T11:37:22.631Z,970.00
2023-04-11T11:38:22.660Z,947.00
2023-04-11T11:39:24.091Z,947.00
2023-04-11T11:40:23.674Z,951.00
2023-04-11T11:41:22.662Z,955.00
2023-04-11T11:42:22.756Z,954.00
2023-04-11T11:43:23.681Z,949.00
2023-04-11T11:44:23.704Z,957.00
2023-04-11T11:45:23.737Z,962.00
2023-04-11T11:46:23.788Z,973.00
2023-04-11T11:47:23.756Z,949.00
2023-04-11T11:48:22.722Z,954.00
2023-04-11T11:49:23.825Z,954.00
2023-04-11T11:50:22.789Z,940.00
2023-04-11T11:51:23.757Z,956.00
2023-04-11T11:52:22.765Z,946.00
2023-04-11T11:53:23.758Z,941.00
2023-04-11T11:54:23.786Z,984.00
2023-04-11T11:55:22.778Z,973.00
2023-04-11T11:56:23.801Z,971.00
2023-04-11T11:57:22.948Z,969.00
2023-04-11T11:58:23.836Z,1006.00
2023-04-11T11:59:23.854Z,981.00
2023-04-11T12:00:23.816Z,974.00
2023-04-11T12:01:23.856Z,961.00
2023-04-11T12:02:23.005Z,953.00
2023-04-11T12:03:24.020Z,959.00
2023-04-11T12:04:24.038Z,947.00
2023-04-11T12:05:22.913Z,954.00
2023-04-11T12:06:23.893Z,961.00
2023-04-11T12:07:22.913Z,945.00
2023-04-11T12:08:23.908Z,954.00
2023-04-11T12:09:23.955Z,956.00
2023-04-11T12:10:23.939Z,953.00
2023-04-11T12:11:23.929Z,947.00
2023-04-11T12:12:23.946Z,955.00
2023-04-11T12:13:23.961Z,957.00
2023-04-11T12:14:24.063Z,952.00
2023-04-11T12:15:22.999Z,954.00
2023-04-11T12:16:24.185Z,956.00
2023-04-11T12:17:24.019Z,956.00
2023-04-11T12:18:24.035Z,959.00
2023-04-11T12:19:24.088Z,978.00
2023-04-11T12:20:24.196Z,974.00
2023-04-11T12:21:23.081Z,969.00
2023-04-11T12:22:23.089Z,983.00
2023-04-11T12:23:23.140Z,983.00
2023-04-11T12:24:23.117Z,994.00
2023-04-11T12:25:24.142Z,985.00
2023-04-11T12:26:24.160Z,986.00
2023-04-11T12:27:24.155Z,976.00
2023-04-11T12:28:24.193Z,985.00
2023-04-11T12:29:23.183Z,987.00
2023-04-11T12:30:24.255Z,990.00
2023-04-11T12:31:24.256Z,988.00
2023-04-11T12:32:24.268Z,979.00
2023-04-11T12:33:24.264Z,1000.00
2023-04-11T12:34:23.259Z,994.00
2023-04-11T12:35:24.266Z,986.00
2023-04-11T12:36:24.294Z,999.00
2023-04-11T12:37:24.285Z,997.00
2023-04-11T12:38:23.301Z,1003.00
2023-04-11T12:39:23.304Z,1000.00
2023-04-11T12:40:24.346Z,997.00
2023-04-11T12:41:32.379Z,1005.00
2023-04-11T12:42:27.244Z,1005.00
2023-04-11T12:43:24.341Z,1006.00
2023-04-11T12:44:23.316Z,1007.00
2023-04-11T12:45:24.328Z,1006.00
2023-04-11T12:46:24.445Z,1007.00
2023-04-11T12:47:24.387Z,1005.00
2023-04-11T12:48:24.286Z,1011.00
2023-04-11T12:49:24.285Z,1015.00
2023-04-11T12:50:24.580Z,1001.00
2023-04-11T12:51:23.263Z,1006.00
2023-04-11T12:52:24.264Z,1005.00
2023-04-11T12:53:25.123Z,1012.00
2023-04-11T12:54:24.249Z,1020.00
2023-04-11T12:55:24.300Z,1007.00
2023-04-11T12:56:23.224Z,1009.00
2023-04-11T12:57:24.244Z,1015.00
2023-04-11T12:58:24.210Z,1014.00
2023-04-11T12:59:24.207Z,1010.00
2023-04-11T13:00:23.217Z,1015.00
2023-04-11T13:01:24.237Z,1014.00
2023-04-11T13:02:23.338Z,1026.00
2023-04-11T13:03:24.354Z,1026.00
2023-04-11T13:04:23.291Z,1021.00
2023-04-11T13:05:24.183Z,1022.00
2023-04-11T13:06:23.174Z,1017.00
2023-04-11T13:07:24.168Z,1032.00
2023-04-11T13:08:24.153Z,1034.00
2023-04-11T13:09:24.143Z,1035.00
2023-04-11T13:10:23.144Z,1017.00
2023-04-11T13:11:23.145Z,1043.00
2023-04-11T13:12:24.116Z,1039.00
2023-04-11T13:13:24.126Z,1048.00
2023-04-11T13:14:24.131Z,1050.00
2023-04-11T13:15:24.110Z,1047.00
2023-04-11T13:16:24.141Z,1057.00
2023-04-11T13:17:24.192Z,1045.00
2023-04-11T13:18:24.110Z,1044.00
2023-04-11T13:19:24.091Z,1054.00
2023-04-11T13:20:24.069Z,1040.00
2023-04-11T13:21:23.073Z,1058.00
2023-04-11T13:22:23.104Z,1053.00
2023-04-11T13:23:23.123Z,1036.00
2023-04-11T13:24:24.118Z,1066.00
2023-04-11T13:25:24.141Z,1044.00
2023-04-11T13:26:24.162Z,1052.00
2023-04-11T13:27:24.181Z,1054.00
2023-04-11T13:28:24.208Z,1048.00
2023-04-11T13:29:24.259Z,1054.00
2023-04-11T13:30:23.261Z,1055.00
2023-04-11T13:31:24.278Z,1055.00
2023-04-11T13:32:24.308Z,1052.00
2023-04-11T13:33:23.278Z,1055.00
2023-04-11T13:34:24.350Z,1056.00
2023-04-11T13:35:26.171Z,1049.00
2023-04-11T13:36:24.326Z,1071.00
2023-04-11T13:37:23.306Z,1053.00
2023-04-11T13:38:23.293Z,1048.00
2023-04-11T13:39:24.285Z,1058.00
2023-04-11T13:40:24.309Z,1058.00
2023-04-11T13:41:24.310Z,1053.00
2023-04-11T13:42:23.291Z,1058.00
2023-04-11T13:43:23.266Z,1061.00
2023-04-11T13:44:24.251Z,1060.00
2023-04-11T13:45:24.291Z,1048.00
2023-04-11T13:46:24.240Z,1054.00
2023-04-11T13:47:24.299Z,1080.00
2023-04-11T13:48:24.229Z,1057.00
2023-04-11T13:49:23.210Z,1053.00
2023-04-11T13:50:23.234Z,1065.00
2023-04-11T13:51:23.204Z,1066.00
2023-04-11T13:52:23.211Z,1067.00
2023-04-11T13:53:24.206Z,1070.00
2023-04-11T13:54:23.224Z,1069.00
2023-04-11T13:55:24.182Z,1077.00
2023-04-11T13:56:24.166Z,1064.00
2023-04-11T13:57:23.164Z,1074.00
2023-04-11T13:58:24.154Z,1063.00
2023-04-11T13:59:23.132Z,1077.00
2023-04-11T14:00:23.141Z,1076.00
2023-04-11T14:01:24.181Z,1080.00
2023-04-11T14:02:24.179Z,1084.00
2023-04-11T14:03:24.233Z,1080.00
2023-04-11T14:04:24.144Z,1085.00
2023-04-11T14:05:24.115Z,1076.00
2023-04-11T14:06:24.119Z,1090.00
2023-04-11T14:07:23.094Z,1092.00
2023-04-11T14:08:24.091Z,1077.00
2023-04-11T14:09:24.097Z,1080.00
2023-04-11T14:10:24.075Z,1078.00
2023-04-11T14:11:24.057Z,1085.00
2023-04-11T14:12:24.048Z,1093.00
2023-04-11T14:13:24.076Z,1091.00
2023-04-11T14:14:24.096Z,1090.00
2023-04-11T14:15:23.127Z,1090.00
2023-04-11T14:16:23.168Z,1089.00
2023-04-11T14:17:24.216Z,1103.00
2023-04-11T14:18:24.234Z,1101.00
2023-04-11T14:19:24.255Z,1104.00
2023-04-11T14:20:23.293Z,1108.00
2023-04-11T14:21:24.335Z,1091.00
2023-04-11T14:22:23.389Z,1106.00
2023-04-11T14:23:23.370Z,1110.00
2023-04-11T14:24:24.401Z,1108.00
2023-04-11T14:25:24.419Z,1092.00
2023-04-11T14:26:24.453Z,1097.00
2023-04-11T14:27:23.502Z,1101.00
2023-04-11T14:28:26.578Z,1103.00
2023-04-11T14:29:24.497Z,1111.00
2023-04-11T14:30:24.605Z,1112.00
2023-04-11T14:31:24.622Z,1114.00
2023-04-11T14:32:23.505Z,1105.00
2023-04-11T14:33:24.484Z,1097.00
2023-04-11T14:34:23.500Z,1100.00
2023-04-11T14:35:23.461Z,1105.00
2023-04-11T14:36:24.493Z,1105.00
2023-04-11T14:37:24.445Z,1106.00
2023-04-11T14:38:23.679Z,1114.00
2023-04-11T14:39:24.429Z,1106.00
2023-04-11T14:40:24.465Z,1101.00
2023-04-11T14:41:24.425Z,1108.00
2023-04-11T14:42:24.418Z,1106.00
2023-04-11T14:43:23.410Z,1097.00
2023-04-11T14:44:23.410Z,1105.00
2023-04-11T14:45:24.386Z,1102.00
2023-04-11T14:46:24.386Z,1104.00
2023-04-11T14:47:24.392Z,1113.00
2023-04-11T14:48:24.370Z,1113.00
2023-04-11T14:49:23.360Z,1102.00
2023-04-11T14:50:24.752Z,1117.00
2023-04-11T14:51:24.334Z,1118.00
2023-04-11T14:52:24.337Z,1112.00
2023-04-11T14:53:23.331Z,1113.00
2023-04-11T14:54:24.358Z,1112.00
2023-04-11T14:55:24.360Z,1122.00
2023-04-11T14:56:24.386Z,1105.00
2023-04-11T14:57:23.397Z,1106.00
2023-04-11T14:58:24.423Z,1113.00
2023-04-11T14:59:23.453Z,1110.00
2023-04-11T15:00:23.476Z,1110.00
2023-04-11T15:01:24.555Z,1121.00
2023-04-11T15:02:24.751Z,1107.00
2023-04-11T15:03:23.842Z,1105.00
2023-04-11T15:04:24.741Z,1113.00
2023-04-11T15:05:24.635Z,1109.00
2023-04-11T15:06:24.682Z,1113.00
2023-04-11T15:07:23.700Z,1099.00
2023-04-11T15:08:23.738Z,1099.00
2023-04-11T15:09:24.753Z,1098.00
2023-04-11T15:10:24.852Z,1089.00
2023-04-11T15:11:24.856Z,1090.00
2023-04-11T15:12:24.868Z,1101.00
2023-04-11T15:13:24.924Z,1103.00
2023-04-11T15:14:23.925Z,1089.00
2023-04-11T15:15:24.990Z,1092.00
2023-04-11T15:16:24.096Z,1111.00
2023-04-11T15:17:24.069Z,1110.00
2023-04-11T15:18:25.076Z,1116.00
2023-04-11T15:19:25.108Z,1110.00
2023-04-11T15:20:25.189Z,1101.00
2023-04-11T15:21:25.189Z,1113.00
2023-04-11T15:22:25.222Z,1106.00
2023-04-11T15:23:24.256Z,1093.00
2023-04-11T15:24:25.297Z,1086.00
2023-04-11T15:25:24.314Z,1076.00
2023-04-11T15:26:25.393Z,1070.00
2023-04-11T15:27:25.390Z,1080.00
2023-04-11T15:28:24.444Z,1064.00
2023-04-11T15:29:24.477Z,1065.00
